sensor_id;sensor_type;location;lat;lon;timestamp;P1;durP1;ratioP1;P2;durP2;ratioP2
67869;SDS011;54673;52.262;6.830;2023-05-10T00:01:20;2.73;;;1.70;;
67869;SDS011;54673;52.262;6.830;2023-05-10T00:03:46;2.50;;;1.47;;
67869;SDS011;54673;52.262;6.830;2023-05-10T00:06:11;3.25;;;1.60;;
67869;SDS011;54673;52.262;6.830;2023-05-10T00:08:37;2.53;;;1.43;;
67869;SDS011;54673;52.262;6.830;2023-05-10T00:11:02;1.67;;;1.58;;
67869;SDS011;54673;52.262;6.830;2023-05-10T00:13:28;2.40;;;1.80;;
67869;SDS011;54673;52.262;6.830;2023-05-10T00:15:54;1.73;;;1.47;;
67869;SDS011;54673;52.262;6.830;2023-05-10T00:18:19;2.47;;;1.50;;
67869;SDS011;54673;52.262;6.830;2023-05-10T00:20:45;1.60;;;1.43;;
67869;SDS011;54673;52.262;6.830;2023-05-10T00:23:11;1.80;;;1.50;;
67869;SDS011;54673;52.262;6.830;2023-05-10T00:25:37;1.70;;;1.60;;
67869;SDS011;54673;52.262;6.830;2023-05-10T00:28:02;1.73;;;1.50;;
67869;SDS011;54673;52.262;6.830;2023-05-10T00:30:28;1.70;;;1.60;;
67869;SDS011;54673;52.262;6.830;2023-05-10T00:32:53;1.67;;;1.33;;
67869;SDS011;54673;52.262;6.830;2023-05-10T00:35:19;2.27;;;1.40;;
67869;SDS011;54673;52.262;6.830;2023-05-10T00:37:45;1.48;;;1.17;;
67869;SDS011;54673;52.262;6.830;2023-05-10T00:40:10;1.50;;;1.40;;
67869;SDS011;54673;52.262;6.830;2023-05-10T00:42:36;1.55;;;1.30;;
67869;SDS011;54673;52.262;6.830;2023-05-10T00:45:02;2.23;;;1.57;;
67869;SDS011;54673;52.262;6.830;2023-05-10T00:47:27;1.70;;;1.40;;
67869;SDS011;54673;52.262;6.830;2023-05-10T00:49:53;2.90;;;1.27;;
67869;SDS011;54673;52.262;6.830;2023-05-10T00:52:20;1.50;;;1.40;;
67869;SDS011;54673;52.262;6.830;2023-05-10T00:54:48;1.77;;;1.40;;
67869;SDS011;54673;52.262;6.830;2023-05-10T00:57:16;2.20;;;1.30;;
67869;SDS011;54673;52.262;6.830;2023-05-10T00:59:41;1.80;;;1.30;;
67869;SDS011;54673;52.262;6.830;2023-05-10T01:02:07;1.38;;;1.25;;
67869;SDS011;54673;52.262;6.830;2023-05-10T01:04:32;1.40;;;1.23;;
67869;SDS011;54673;52.262;6.830;2023-05-10T01:06:58;2.40;;;1.40;;
67869;SDS011;54673;52.262;6.830;2023-05-10T01:09:24;1.43;;;1.30;;
67869;SDS011;54673;52.262;6.830;2023-05-10T01:11:51;2.13;;;1.48;;
67869;SDS011;54673;52.262;6.830;2023-05-10T01:14:17;1.50;;;1.40;;
67869;SDS011;54673;52.262;6.830;2023-05-10T01:16:44;1.30;;;1.20;;
67869;SDS011;54673;52.262;6.830;2023-05-10T01:27:19;1.20;;;1.10;;
67869;SDS011;54673;52.262;6.830;2023-05-10T01:33:16;1.33;;;1.23;;
67869;SDS011;54673;52.262;6.830;2023-05-10T01:38:50;4.45;;;1.55;;
67869;SDS011;54673;52.262;6.830;2023-05-10T01:46:22;2.00;;;1.10;;
67869;SDS011;54673;52.262;6.830;2023-05-10T01:48:54;3.92;;;1.30;;
67869;SDS011;54673;52.262;6.830;2023-05-10T01:51:24;1.40;;;1.10;;
67869;SDS011;54673;52.262;6.830;2023-05-10T01:53:56;1.48;;;1.38;;
67869;SDS011;54673;52.262;6.830;2023-05-10T01:56:25;2.22;;;1.20;;
67869;SDS011;54673;52.262;6.830;2023-05-10T01:58:52;1.50;;;1.40;;
67869;SDS011;54673;52.262;6.830;2023-05-10T02:01:20;2.33;;;1.30;;
67869;SDS011;54673;52.262;6.830;2023-05-10T02:03:46;2.88;;;1.20;;
67869;SDS011;54673;52.262;6.830;2023-05-10T02:06:14;1.90;;;1.27;;
67869;SDS011;54673;52.262;6.830;2023-05-10T02:08:43;1.70;;;1.30;;
67869;SDS011;54673;52.262;6.830;2023-05-10T02:11:10;1.50;;;1.40;;
67869;SDS011;54673;52.262;6.830;2023-05-10T02:13:38;1.67;;;1.20;;
67869;SDS011;54673;52.262;6.830;2023-05-10T02:16:06;1.70;;;1.50;;
67869;SDS011;54673;52.262;6.830;2023-05-10T02:18:32;1.85;;;1.30;;
67869;SDS011;54673;52.262;6.830;2023-05-10T02:21:00;3.67;;;1.53;;
67869;SDS011;54673;52.262;6.830;2023-05-10T02:23:27;2.13;;;1.38;;
67869;SDS011;54673;52.262;6.830;2023-05-10T02:25:54;1.30;;;1.20;;
67869;SDS011;54673;52.262;6.830;2023-05-10T02:28:21;1.47;;;1.20;;
67869;SDS011;54673;52.262;6.830;2023-05-10T02:30:48;1.42;;;1.33;;
67869;SDS011;54673;52.262;6.830;2023-05-10T02:33:14;2.10;;;1.50;;
67869;SDS011;54673;52.262;6.830;2023-05-10T02:35:40;1.90;;;1.60;;
67869;SDS011;54673;52.262;6.830;2023-05-10T02:38:06;2.13;;;1.52;;
67869;SDS011;54673;52.262;6.830;2023-05-10T02:40:33;1.50;;;1.40;;
67869;SDS011;54673;52.262;6.830;2023-05-10T02:43:01;1.57;;;1.40;;
67869;SDS011;54673;52.262;6.830;2023-05-10T02:45:30;1.73;;;1.40;;
67869;SDS011;54673;52.262;6.830;2023-05-10T02:47:57;1.70;;;1.53;;
67869;SDS011;54673;52.262;6.830;2023-05-10T02:50:24;1.73;;;1.63;;
67869;SDS011;54673;52.262;6.830;2023-05-10T02:52:54;2.03;;;1.50;;
67869;SDS011;54673;52.262;6.830;2023-05-10T02:55:25;1.67;;;1.20;;
67869;SDS011;54673;52.262;6.830;2023-05-10T02:58:01;1.80;;;1.30;;
67869;SDS011;54673;52.262;6.830;2023-05-10T03:00:27;2.08;;;1.45;;
67869;SDS011;54673;52.262;6.830;2023-05-10T03:02:53;2.47;;;1.43;;
67869;SDS011;54673;52.262;6.830;2023-05-10T03:05:19;1.60;;;1.50;;
67869;SDS011;54673;52.262;6.830;2023-05-10T03:07:45;1.58;;;1.48;;
67869;SDS011;54673;52.262;6.830;2023-05-10T03:10:11;1.60;;;1.47;;
67869;SDS011;54673;52.262;6.830;2023-05-10T03:25:49;3.05;;;1.40;;
67869;SDS011;54673;52.262;6.830;2023-05-10T03:28:16;2.33;;;1.40;;
67869;SDS011;54673;52.262;6.830;2023-05-10T03:30:43;1.87;;;1.70;;
67869;SDS011;54673;52.262;6.830;2023-05-10T03:33:09;2.05;;;1.67;;
67869;SDS011;54673;52.262;6.830;2023-05-10T03:35:35;2.55;;;1.98;;
67869;SDS011;54673;52.262;6.830;2023-05-10T03:38:01;1.97;;;1.77;;
67869;SDS011;54673;52.262;6.830;2023-05-10T03:40:27;1.70;;;1.60;;
67869;SDS011;54673;52.262;6.830;2023-05-10T03:42:57;1.90;;;1.60;;
67869;SDS011;54673;52.262;6.830;2023-05-10T03:45:23;1.70;;;1.58;;
67869;SDS011;54673;52.262;6.830;2023-05-10T03:47:49;1.90;;;1.63;;
67869;SDS011;54673;52.262;6.830;2023-05-10T03:50:14;2.33;;;1.70;;
67869;SDS011;54673;52.262;6.830;2023-05-10T03:52:40;3.20;;;1.80;;
67869;SDS011;54673;52.262;6.830;2023-05-10T03:55:06;2.30;;;1.88;;
67869;SDS011;54673;52.262;6.830;2023-05-10T03:57:32;2.20;;;2.00;;
67869;SDS011;54673;52.262;6.830;2023-05-10T03:59:58;4.35;;;1.70;;
67869;SDS011;54673;52.262;6.830;2023-05-10T04:02:23;2.73;;;2.17;;
67869;SDS011;54673;52.262;6.830;2023-05-10T04:04:49;2.75;;;2.05;;
67869;SDS011;54673;52.262;6.830;2023-05-10T04:07:15;2.93;;;2.23;;
67869;SDS011;54673;52.262;6.830;2023-05-10T04:09:40;4.00;;;2.30;;
67869;SDS011;54673;52.262;6.830;2023-05-10T04:12:06;3.45;;;2.25;;
67869;SDS011;54673;52.262;6.830;2023-05-10T04:14:32;4.03;;;2.70;;
67869;SDS011;54673;52.262;6.830;2023-05-10T04:16:57;4.78;;;2.42;;
67869;SDS011;54673;52.262;6.830;2023-05-10T04:19:23;3.80;;;3.00;;
67869;SDS011;54673;52.262;6.830;2023-05-10T04:21:48;3.07;;;2.63;;
67869;SDS011;54673;52.262;6.830;2023-05-10T04:24:14;4.75;;;3.10;;
67869;SDS011;54673;52.262;6.830;2023-05-10T04:26:40;4.10;;;2.93;;
67869;SDS011;54673;52.262;6.830;2023-05-10T04:29:05;3.53;;;2.88;;
67869;SDS011;54673;52.262;6.830;2023-05-10T04:31:31;5.10;;;3.10;;
67869;SDS011;54673;52.262;6.830;2023-05-10T04:33:57;5.32;;;2.95;;
67869;SDS011;54673;52.262;6.830;2023-05-10T04:36:22;3.67;;;3.10;;
67869;SDS011;54673;52.262;6.830;2023-05-10T04:38:48;4.47;;;2.97;;
67869;SDS011;54673;52.262;6.830;2023-05-10T04:41:13;6.20;;;3.23;;
67869;SDS011;54673;52.262;6.830;2023-05-10T04:43:39;4.72;;;3.55;;
67869;SDS011;54673;52.262;6.830;2023-05-10T04:46:05;3.50;;;3.00;;
67869;SDS011;54673;52.262;6.830;2023-05-10T04:48:32;4.68;;;3.40;;
67869;SDS011;54673;52.262;6.830;2023-05-10T04:50:57;4.23;;;3.30;;
67869;SDS011;54673;52.262;6.830;2023-05-10T04:53:23;4.93;;;3.88;;
67869;SDS011;54673;52.262;6.830;2023-05-10T04:55:48;4.63;;;3.73;;
67869;SDS011;54673;52.262;6.830;2023-05-10T04:58:14;4.63;;;3.90;;
67869;SDS011;54673;52.262;6.830;2023-05-10T05:00:40;5.43;;;3.40;;
67869;SDS011;54673;52.262;6.830;2023-05-10T05:03:05;5.27;;;3.83;;
67869;SDS011;54673;52.262;6.830;2023-05-10T05:05:31;6.03;;;4.17;;
67869;SDS011;54673;52.262;6.830;2023-05-10T05:07:56;4.63;;;3.67;;
67869;SDS011;54673;52.262;6.830;2023-05-10T05:10:22;6.57;;;4.30;;
67869;SDS011;54673;52.262;6.830;2023-05-10T05:12:47;5.85;;;4.15;;
67869;SDS011;54673;52.262;6.830;2023-05-10T05:15:13;4.90;;;3.70;;
67869;SDS011;54673;52.262;6.830;2023-05-10T05:17:40;7.07;;;4.03;;
67869;SDS011;54673;52.262;6.830;2023-05-10T05:20:05;5.90;;;3.80;;
67869;SDS011;54673;52.262;6.830;2023-05-10T05:22:32;7.35;;;4.30;;
67869;SDS011;54673;52.262;6.830;2023-05-10T05:24:57;6.97;;;4.30;;
67869;SDS011;54673;52.262;6.830;2023-05-10T05:27:23;6.33;;;4.20;;
67869;SDS011;54673;52.262;6.830;2023-05-10T05:29:52;5.40;;;3.45;;
67869;SDS011;54673;52.262;6.830;2023-05-10T05:32:21;4.95;;;4.03;;
67869;SDS011;54673;52.262;6.830;2023-05-10T05:34:47;6.30;;;3.37;;
67869;SDS011;54673;52.262;6.830;2023-05-10T05:37:18;5.47;;;3.22;;
67869;SDS011;54673;52.262;6.830;2023-05-10T05:39:45;4.70;;;3.50;;
67869;SDS011;54673;52.262;6.830;2023-05-10T05:42:11;4.90;;;3.13;;
67869;SDS011;54673;52.262;6.830;2023-05-10T05:44:38;4.38;;;3.33;;
67869;SDS011;54673;52.262;6.830;2023-05-10T05:47:04;3.97;;;2.87;;
67869;SDS011;54673;52.262;6.830;2023-05-10T05:49:30;3.88;;;2.70;;
67869;SDS011;54673;52.262;6.830;2023-05-10T05:52:02;4.83;;;2.90;;
67869;SDS011;54673;52.262;6.830;2023-05-10T05:54:29;4.47;;;3.00;;
67869;SDS011;54673;52.262;6.830;2023-05-10T05:56:58;4.47;;;3.03;;
67869;SDS011;54673;52.262;6.830;2023-05-10T05:59:25;4.90;;;2.90;;
67869;SDS011;54673;52.262;6.830;2023-05-10T06:01:50;5.38;;;3.50;;
67869;SDS011;54673;52.262;6.830;2023-05-10T06:04:16;4.53;;;3.20;;
67869;SDS011;54673;52.262;6.830;2023-05-10T06:06:42;4.30;;;3.00;;
67869;SDS011;54673;52.262;6.830;2023-05-10T06:09:08;4.28;;;3.28;;
67869;SDS011;54673;52.262;6.830;2023-05-10T06:11:34;4.53;;;2.80;;
67869;SDS011;54673;52.262;6.830;2023-05-10T06:14:00;5.40;;;3.38;;
67869;SDS011;54673;52.262;6.830;2023-05-10T06:16:27;4.33;;;3.00;;
67869;SDS011;54673;52.262;6.830;2023-05-10T06:18:52;4.00;;;3.00;;
67869;SDS011;54673;52.262;6.830;2023-05-10T06:21:18;4.82;;;3.03;;
67869;SDS011;54673;52.262;6.830;2023-05-10T06:23:44;4.40;;;3.13;;
67869;SDS011;54673;52.262;6.830;2023-05-10T06:26:10;4.68;;;3.05;;
67869;SDS011;54673;52.262;6.830;2023-05-10T06:28:35;5.17;;;3.00;;
67869;SDS011;54673;52.262;6.830;2023-05-10T06:31:03;4.75;;;3.50;;
67869;SDS011;54673;52.262;6.830;2023-05-10T06:33:29;4.67;;;3.37;;
67869;SDS011;54673;52.262;6.830;2023-05-10T06:35:55;3.70;;;3.10;;
67869;SDS011;54673;52.262;6.830;2023-05-10T06:38:20;3.13;;;2.72;;
67869;SDS011;54673;52.262;6.830;2023-05-10T06:40:46;3.73;;;2.70;;
67869;SDS011;54673;52.262;6.830;2023-05-10T06:43:12;3.67;;;2.88;;
67869;SDS011;54673;52.262;6.830;2023-05-10T06:45:37;4.37;;;3.20;;
67869;SDS011;54673;52.262;6.830;2023-05-10T06:48:03;3.97;;;3.20;;
67869;SDS011;54673;52.262;6.830;2023-05-10T06:50:29;4.17;;;3.23;;
67869;SDS011;54673;52.262;6.830;2023-05-10T06:52:54;4.10;;;3.40;;
67869;SDS011;54673;52.262;6.830;2023-05-10T06:55:20;3.40;;;2.63;;
67869;SDS011;54673;52.262;6.830;2023-05-10T06:57:46;4.22;;;2.70;;
67869;SDS011;54673;52.262;6.830;2023-05-10T07:00:12;4.43;;;3.00;;
67869;SDS011;54673;52.262;6.830;2023-05-10T07:02:38;3.38;;;2.65;;
67869;SDS011;54673;52.262;6.830;2023-05-10T07:05:04;3.20;;;2.50;;
67869;SDS011;54673;52.262;6.830;2023-05-10T07:07:30;4.73;;;2.87;;
67869;SDS011;54673;52.262;6.830;2023-05-10T07:09:56;4.60;;;2.78;;
67869;SDS011;54673;52.262;6.830;2023-05-10T07:12:22;4.10;;;2.70;;
67869;SDS011;54673;52.262;6.830;2023-05-10T07:14:48;4.28;;;2.42;;
67869;SDS011;54673;52.262;6.830;2023-05-10T07:17:14;4.55;;;2.90;;
67869;SDS011;54673;52.262;6.830;2023-05-10T07:19:40;3.27;;;2.80;;
67869;SDS011;54673;52.262;6.830;2023-05-10T07:22:05;3.97;;;2.80;;
67869;SDS011;54673;52.262;6.830;2023-05-10T07:24:31;3.90;;;2.77;;
67869;SDS011;54673;52.262;6.830;2023-05-10T07:26:57;4.13;;;2.80;;
67869;SDS011;54673;52.262;6.830;2023-05-10T07:29:23;3.00;;;2.70;;
67869;SDS011;54673;52.262;6.830;2023-05-10T07:31:49;5.27;;;3.40;;
67869;SDS011;54673;52.262;6.830;2023-05-10T07:34:14;4.07;;;2.60;;
67869;SDS011;54673;52.262;6.830;2023-05-10T07:36:40;4.73;;;3.03;;
67869;SDS011;54673;52.262;6.830;2023-05-10T07:39:05;2.85;;;2.55;;
67869;SDS011;54673;52.262;6.830;2023-05-10T07:41:31;3.13;;;2.47;;
67869;SDS011;54673;52.262;6.830;2023-05-10T07:43:57;4.20;;;2.63;;
67869;SDS011;54673;52.262;6.830;2023-05-10T07:46:23;3.40;;;2.67;;
67869;SDS011;54673;52.262;6.830;2023-05-10T07:48:48;4.32;;;2.78;;
67869;SDS011;54673;52.262;6.830;2023-05-10T07:51:14;4.60;;;2.87;;
67869;SDS011;54673;52.262;6.830;2023-05-10T07:53:39;3.67;;;2.80;;
67869;SDS011;54673;52.262;6.830;2023-05-10T07:58:52;3.90;;;2.67;;
67869;SDS011;54673;52.262;6.830;2023-05-10T08:01:19;3.13;;;2.67;;
67869;SDS011;54673;52.262;6.830;2023-05-10T08:03:44;4.00;;;2.80;;
67869;SDS011;54673;52.262;6.830;2023-05-10T08:06:10;4.57;;;2.60;;
67869;SDS011;54673;52.262;6.830;2023-05-10T08:08:36;5.75;;;2.63;;
67869;SDS011;54673;52.262;6.830;2023-05-10T08:11:01;4.07;;;2.67;;
67869;SDS011;54673;52.262;6.830;2023-05-10T08:13:27;5.30;;;2.80;;
67869;SDS011;54673;52.262;6.830;2023-05-10T08:15:52;3.20;;;2.30;;
67869;SDS011;54673;52.262;6.830;2023-05-10T08:18:18;4.50;;;2.53;;
67869;SDS011;54673;52.262;6.830;2023-05-10T08:20:44;4.00;;;2.75;;
67869;SDS011;54673;52.262;6.830;2023-05-10T08:23:11;5.03;;;2.80;;
67869;SDS011;54673;52.262;6.830;2023-05-10T08:25:38;3.15;;;2.28;;
67869;SDS011;54673;52.262;6.830;2023-05-10T08:28:03;3.40;;;2.58;;
67869;SDS011;54673;52.262;6.830;2023-05-10T08:30:29;3.93;;;2.70;;
67869;SDS011;54673;52.262;6.830;2023-05-10T08:32:55;4.25;;;2.63;;
67869;SDS011;54673;52.262;6.830;2023-05-10T08:35:20;4.87;;;2.60;;
67869;SDS011;54673;52.262;6.830;2023-05-10T08:37:46;5.13;;;2.83;;
67869;SDS011;54673;52.262;6.830;2023-05-10T08:40:11;4.38;;;2.80;;
67869;SDS011;54673;52.262;6.830;2023-05-10T08:42:39;3.47;;;2.47;;
67869;SDS011;54673;52.262;6.830;2023-05-10T08:45:08;7.65;;;3.13;;
67869;SDS011;54673;52.262;6.830;2023-05-10T08:47:36;3.97;;;2.87;;
67869;SDS011;54673;52.262;6.830;2023-05-10T08:50:04;4.40;;;2.92;;
67869;SDS011;54673;52.262;6.830;2023-05-10T08:52:30;6.18;;;2.72;;
67869;SDS011;54673;52.262;6.830;2023-05-10T08:54:58;3.57;;;2.73;;
67869;SDS011;54673;52.262;6.830;2023-05-10T08:57:23;4.45;;;2.72;;
67869;SDS011;54673;52.262;6.830;2023-05-10T08:59:49;6.50;;;3.30;;
67869;SDS011;54673;52.262;6.830;2023-05-10T09:02:15;4.90;;;2.90;;
67869;SDS011;54673;52.262;6.830;2023-05-10T09:04:43;15.32;;;4.43;;
67869;SDS011;54673;52.262;6.830;2023-05-10T09:07:08;12.83;;;5.33;;
67869;SDS011;54673;52.262;6.830;2023-05-10T09:09:35;13.13;;;5.15;;
67869;SDS011;54673;52.262;6.830;2023-05-10T09:12:02;12.00;;;4.80;;
67869;SDS011;54673;52.262;6.830;2023-05-10T09:14:28;11.63;;;5.18;;
67869;SDS011;54673;52.262;6.830;2023-05-10T09:16:54;11.85;;;4.65;;
67869;SDS011;54673;52.262;6.830;2023-05-10T09:19:20;7.97;;;4.90;;
67869;SDS011;54673;52.262;6.830;2023-05-10T09:21:45;11.40;;;4.32;;
67869;SDS011;54673;52.262;6.830;2023-05-10T09:24:11;13.77;;;4.87;;
67869;SDS011;54673;52.262;6.830;2023-05-10T09:26:45;9.98;;;4.75;;
67869;SDS011;54673;52.262;6.830;2023-05-10T09:29:14;21.70;;;5.30;;
67869;SDS011;54673;52.262;6.830;2023-05-10T09:31:52;18.25;;;7.63;;
67869;SDS011;54673;52.262;6.830;2023-05-10T09:34:28;16.35;;;6.90;;
67869;SDS011;54673;52.262;6.830;2023-05-10T09:36:56;14.73;;;7.73;;
67869;SDS011;54673;52.262;6.830;2023-05-10T09:39:32;19.65;;;8.23;;
67869;SDS011;54673;52.262;6.830;2023-05-10T09:42:05;20.02;;;7.82;;
67869;SDS011;54673;52.262;6.830;2023-05-10T09:44:35;22.00;;;8.33;;
67869;SDS011;54673;52.262;6.830;2023-05-10T09:47:01;22.92;;;9.80;;
67869;SDS011;54673;52.262;6.830;2023-05-10T09:49:27;22.08;;;9.85;;
67869;SDS011;54673;52.262;6.830;2023-05-10T09:52:06;18.77;;;8.07;;
67869;SDS011;54673;52.262;6.830;2023-05-10T09:54:32;17.15;;;7.68;;
67869;SDS011;54673;52.262;6.830;2023-05-10T09:56:58;12.93;;;6.13;;
67869;SDS011;54673;52.262;6.830;2023-05-10T09:59:25;12.10;;;6.13;;
67869;SDS011;54673;52.262;6.830;2023-05-10T10:02:01;11.95;;;5.63;;
67869;SDS011;54673;52.262;6.830;2023-05-10T10:04:27;11.47;;;6.10;;
67869;SDS011;54673;52.262;6.830;2023-05-10T10:07:00;9.47;;;5.07;;
67869;SDS011;54673;52.262;6.830;2023-05-10T10:09:29;10.70;;;4.78;;
67869;SDS011;54673;52.262;6.830;2023-05-10T10:11:55;9.57;;;4.83;;
67869;SDS011;54673;52.262;6.830;2023-05-10T10:14:22;9.13;;;4.75;;
67869;SDS011;54673;52.262;6.830;2023-05-10T10:16:51;7.40;;;4.40;;
67869;SDS011;54673;52.262;6.830;2023-05-10T10:19:20;8.13;;;4.10;;
67869;SDS011;54673;52.262;6.830;2023-05-10T10:21:46;8.45;;;4.60;;
67869;SDS011;54673;52.262;6.830;2023-05-10T10:24:15;8.43;;;4.22;;
67869;SDS011;54673;52.262;6.830;2023-05-10T10:26:41;9.30;;;4.20;;
67869;SDS011;54673;52.262;6.830;2023-05-10T10:32:20;6.20;;;4.00;;
67869;SDS011;54673;52.262;6.830;2023-05-10T10:35:07;10.07;;;4.18;;
67869;SDS011;54673;52.262;6.830;2023-05-10T10:37:47;7.30;;;3.78;;
67869;SDS011;54673;52.262;6.830;2023-05-10T10:40:27;8.33;;;4.00;;
67869;SDS011;54673;52.262;6.830;2023-05-10T10:42:55;6.03;;;3.50;;
67869;SDS011;54673;52.262;6.830;2023-05-10T10:45:22;5.30;;;3.60;;
67869;SDS011;54673;52.262;6.830;2023-05-10T10:47:48;5.27;;;3.13;;
67869;SDS011;54673;52.262;6.830;2023-05-10T10:50:18;4.72;;;3.15;;
67869;SDS011;54673;52.262;6.830;2023-05-10T10:52:44;8.20;;;3.57;;
67869;SDS011;54673;52.262;6.830;2023-05-10T10:55:11;6.50;;;3.40;;
67869;SDS011;54673;52.262;6.830;2023-05-10T11:02:54;5.10;;;3.65;;
67869;SDS011;54673;52.262;6.830;2023-05-10T11:07:53;4.60;;;3.07;;
67869;SDS011;54673;52.262;6.830;2023-05-10T11:10:20;5.63;;;4.00;;
67869;SDS011;54673;52.262;6.830;2023-05-10T11:12:53;5.23;;;3.17;;
67869;SDS011;54673;52.262;6.830;2023-05-10T11:15:32;4.77;;;3.03;;
67869;SDS011;54673;52.262;6.830;2023-05-10T11:17:59;4.90;;;3.00;;
67869;SDS011;54673;52.262;6.830;2023-05-10T11:20:40;4.50;;;3.23;;
67869;SDS011;54673;52.262;6.830;2023-05-10T11:23:13;3.83;;;3.13;;
67869;SDS011;54673;52.262;6.830;2023-05-10T11:25:43;4.00;;;3.30;;
67869;SDS011;54673;52.262;6.830;2023-05-10T11:28:10;6.43;;;3.30;;
67869;SDS011;54673;52.262;6.830;2023-05-10T11:30:39;4.03;;;3.63;;
67869;SDS011;54673;52.262;6.830;2023-05-10T11:33:06;3.92;;;2.92;;
67869;SDS011;54673;52.262;6.830;2023-05-10T11:35:39;4.67;;;3.23;;
67869;SDS011;54673;52.262;6.830;2023-05-10T11:38:08;3.88;;;2.80;;
67869;SDS011;54673;52.262;6.830;2023-05-10T11:40:36;4.43;;;2.92;;
67869;SDS011;54673;52.262;6.830;2023-05-10T11:43:03;3.53;;;2.97;;
67869;SDS011;54673;52.262;6.830;2023-05-10T11:45:31;4.35;;;3.17;;
67869;SDS011;54673;52.262;6.830;2023-05-10T11:47:57;3.47;;;2.77;;
67869;SDS011;54673;52.262;6.830;2023-05-10T11:50:24;5.13;;;3.28;;
67869;SDS011;54673;52.262;6.830;2023-05-10T11:52:54;4.55;;;2.85;;
67869;SDS011;54673;52.262;6.830;2023-05-10T11:55:21;5.30;;;3.27;;
67869;SDS011;54673;52.262;6.830;2023-05-10T11:57:47;5.43;;;3.10;;
67869;SDS011;54673;52.262;6.830;2023-05-10T12:00:16;5.97;;;3.28;;
67869;SDS011;54673;52.262;6.830;2023-05-10T12:02:41;5.07;;;3.27;;
67869;SDS011;54673;52.262;6.830;2023-05-10T12:05:08;3.55;;;3.17;;
67869;SDS011;54673;52.262;6.830;2023-05-10T12:07:34;3.70;;;2.90;;
67869;SDS011;54673;52.262;6.830;2023-05-10T12:12:44;4.43;;;3.03;;
67869;SDS011;54673;52.262;6.830;2023-05-10T12:15:19;3.93;;;3.43;;
67869;SDS011;54673;52.262;6.830;2023-05-10T12:17:46;3.88;;;3.08;;
67869;SDS011;54673;52.262;6.830;2023-05-10T12:20:22;3.20;;;2.90;;
67869;SDS011;54673;52.262;6.830;2023-05-10T12:25:16;4.07;;;3.00;;
67869;SDS011;54673;52.262;6.830;2023-05-10T12:27:52;4.55;;;2.97;;
67869;SDS011;54673;52.262;6.830;2023-05-10T12:30:23;4.83;;;3.53;;
67869;SDS011;54673;52.262;6.830;2023-05-10T12:32:50;3.63;;;3.08;;
67869;SDS011;54673;52.262;6.830;2023-05-10T12:35:16;3.85;;;2.88;;
67869;SDS011;54673;52.262;6.830;2023-05-10T12:37:45;3.87;;;3.13;;
67869;SDS011;54673;52.262;6.830;2023-05-10T12:40:11;3.58;;;3.10;;
67869;SDS011;54673;52.262;6.830;2023-05-10T12:42:37;3.73;;;3.00;;
67869;SDS011;54673;52.262;6.830;2023-05-10T12:45:04;3.00;;;2.65;;
67869;SDS011;54673;52.262;6.830;2023-05-10T12:47:30;4.47;;;2.70;;
67869;SDS011;54673;52.262;6.830;2023-05-10T12:49:57;3.53;;;2.75;;
67869;SDS011;54673;52.262;6.830;2023-05-10T12:52:23;4.20;;;2.95;;
67869;SDS011;54673;52.262;6.830;2023-05-10T12:54:49;3.87;;;3.00;;
67869;SDS011;54673;52.262;6.830;2023-05-10T12:57:15;4.05;;;2.97;;
67869;SDS011;54673;52.262;6.830;2023-05-10T12:59:40;5.33;;;2.70;;
67869;SDS011;54673;52.262;6.830;2023-05-10T13:02:06;3.73;;;2.70;;
67869;SDS011;54673;52.262;6.830;2023-05-10T13:04:33;3.73;;;3.00;;
67869;SDS011;54673;52.262;6.830;2023-05-10T13:06:59;3.20;;;2.88;;
67869;SDS011;54673;52.262;6.830;2023-05-10T13:09:25;5.20;;;2.80;;
67869;SDS011;54673;52.262;6.830;2023-05-10T13:11:51;4.95;;;2.70;;
67869;SDS011;54673;52.262;6.830;2023-05-10T13:14:19;4.93;;;2.90;;
67869;SDS011;54673;52.262;6.830;2023-05-10T13:16:45;3.90;;;2.90;;
67869;SDS011;54673;52.262;6.830;2023-05-10T13:19:12;3.00;;;2.70;;
67869;SDS011;54673;52.262;6.830;2023-05-10T13:21:38;3.28;;;2.70;;
67869;SDS011;54673;52.262;6.830;2023-05-10T13:24:05;3.10;;;2.30;;
67869;SDS011;54673;52.262;6.830;2023-05-10T13:26:31;2.95;;;2.40;;
67869;SDS011;54673;52.262;6.830;2023-05-10T13:28:57;3.10;;;2.70;;
67869;SDS011;54673;52.262;6.830;2023-05-10T13:31:22;3.67;;;2.60;;
67869;SDS011;54673;52.262;6.830;2023-05-10T13:33:48;3.50;;;3.10;;
67869;SDS011;54673;52.262;6.830;2023-05-10T13:36:13;4.37;;;2.93;;
67869;SDS011;54673;52.262;6.830;2023-05-10T13:38:39;3.43;;;2.70;;
67869;SDS011;54673;52.262;6.830;2023-05-10T13:41:05;3.20;;;2.73;;
67869;SDS011;54673;52.262;6.830;2023-05-10T13:43:30;3.58;;;2.90;;
67869;SDS011;54673;52.262;6.830;2023-05-10T13:45:56;4.17;;;2.70;;
67869;SDS011;54673;52.262;6.830;2023-05-10T13:48:21;3.13;;;2.83;;
67869;SDS011;54673;52.262;6.830;2023-05-10T13:50:47;4.10;;;2.93;;
67869;SDS011;54673;52.262;6.830;2023-05-10T13:53:13;3.83;;;2.67;;
67869;SDS011;54673;52.262;6.830;2023-05-10T13:55:39;2.85;;;2.50;;
67869;SDS011;54673;52.262;6.830;2023-05-10T13:58:04;2.90;;;2.33;;
67869;SDS011;54673;52.262;6.830;2023-05-10T14:00:30;2.90;;;2.50;;
67869;SDS011;54673;52.262;6.830;2023-05-10T14:02:56;3.47;;;2.40;;
67869;SDS011;54673;52.262;6.830;2023-05-10T14:05:21;3.20;;;2.85;;
67869;SDS011;54673;52.262;6.830;2023-05-10T14:07:48;3.67;;;3.23;;
67869;SDS011;54673;52.262;6.830;2023-05-10T14:10:15;3.58;;;2.58;;
67869;SDS011;54673;52.262;6.830;2023-05-10T14:12:40;3.22;;;2.90;;
67869;SDS011;54673;52.262;6.830;2023-05-10T14:15:06;4.37;;;3.10;;
67869;SDS011;54673;52.262;6.830;2023-05-10T14:17:32;3.90;;;3.10;;
67869;SDS011;54673;52.262;6.830;2023-05-10T14:19:58;4.90;;;3.17;;
67869;SDS011;54673;52.262;6.830;2023-05-10T14:22:23;3.33;;;2.93;;
67869;SDS011;54673;52.262;6.830;2023-05-10T14:24:49;4.20;;;3.40;;
67869;SDS011;54673;52.262;6.830;2023-05-10T14:27:15;4.63;;;3.27;;
67869;SDS011;54673;52.262;6.830;2023-05-10T14:29:40;5.13;;;3.20;;
67869;SDS011;54673;52.262;6.830;2023-05-10T14:32:06;3.42;;;2.80;;
67869;SDS011;54673;52.262;6.830;2023-05-10T14:34:32;4.73;;;3.00;;
67869;SDS011;54673;52.262;6.830;2023-05-10T14:36:58;4.30;;;3.17;;
67869;SDS011;54673;52.262;6.830;2023-05-10T14:39:23;4.67;;;3.10;;
67869;SDS011;54673;52.262;6.830;2023-05-10T14:41:50;3.53;;;2.80;;
67869;SDS011;54673;52.262;6.830;2023-05-10T14:44:17;5.17;;;3.70;;
67869;SDS011;54673;52.262;6.830;2023-05-10T14:46:42;3.33;;;2.73;;
67869;SDS011;54673;52.262;6.830;2023-05-10T14:49:08;4.53;;;2.80;;
67869;SDS011;54673;52.262;6.830;2023-05-10T14:51:33;3.50;;;3.00;;
67869;SDS011;54673;52.262;6.830;2023-05-10T14:53:59;3.40;;;2.73;;
67869;SDS011;54673;52.262;6.830;2023-05-10T14:56:25;4.32;;;3.13;;
67869;SDS011;54673;52.262;6.830;2023-05-10T14:58:51;3.93;;;3.00;;
67869;SDS011;54673;52.262;6.830;2023-05-10T15:01:16;2.85;;;2.40;;
67869;SDS011;54673;52.262;6.830;2023-05-10T15:03:42;2.40;;;2.20;;
67869;SDS011;54673;52.262;6.830;2023-05-10T15:06:07;3.13;;;2.70;;
67869;SDS011;54673;52.262;6.830;2023-05-10T15:08:33;2.95;;;2.65;;
67869;SDS011;54673;52.262;6.830;2023-05-10T15:10:59;3.63;;;2.57;;
67869;SDS011;54673;52.262;6.830;2023-05-10T15:13:24;3.33;;;2.50;;
67869;SDS011;54673;52.262;6.830;2023-05-10T15:15:50;3.27;;;2.80;;
67869;SDS011;54673;52.262;6.830;2023-05-10T15:18:15;4.93;;;3.10;;
67869;SDS011;54673;52.262;6.830;2023-05-10T15:20:41;3.13;;;2.70;;
67869;SDS011;54673;52.262;6.830;2023-05-10T15:23:07;3.73;;;2.90;;
67869;SDS011;54673;52.262;6.830;2023-05-10T15:25:32;3.20;;;2.80;;
67869;SDS011;54673;52.262;6.830;2023-05-10T15:28:02;3.15;;;2.53;;
67869;SDS011;54673;52.262;6.830;2023-05-10T15:30:28;3.67;;;2.53;;
67869;SDS011;54673;52.262;6.830;2023-05-10T15:32:54;2.90;;;2.60;;
67869;SDS011;54673;52.262;6.830;2023-05-10T15:35:19;2.77;;;2.47;;
67869;SDS011;54673;52.262;6.830;2023-05-10T15:37:46;2.95;;;2.58;;